createdAt,value
2022-11-12T00:01:11.638Z,102885.34
2022-11-12T00:03:39.435Z,102892.84
2022-11-12T00:06:07.539Z,102889.59
2022-11-12T00:08:35.424Z,102886.31
2022-11-12T00:11:04.944Z,102888.44
2022-11-12T00:13:34.343Z,102901.38
2022-11-12T00:16:02.137Z,102899.19
2022-11-12T00:18:29.994Z,102901.28
2022-11-12T00:20:58.246Z,102894.50
2022-11-12T00:23:26.184Z,102893.69
2022-11-12T00:26:00.200Z,102898.75
2022-11-12T00:28:30.235Z,102893.34
2022-11-12T00:31:07.530Z,102895.22
2022-11-12T00:33:35.434Z,102897.09
2022-11-12T00:36:03.399Z,102900.88
2022-11-12T00:38:31.968Z,102903.84
2022-11-12T00:41:00.619Z,102902.19
2022-11-12T00:43:29.022Z,102900.31
2022-11-12T00:45:57.080Z,102906.53
2022-11-12T00:48:26.649Z,102907.59
2022-11-12T00:51:01.119Z,102913.47
2022-11-12T00:53:28.992Z,102918.88
2022-11-12T00:56:01.901Z,102909.38
2022-11-12T00:58:30.506Z,102909.63
2022-11-12T01:00:58.830Z,102909.06
2022-11-12T01:03:29.303Z,102904.94
2022-11-12T01:06:03.424Z,102903.56
2022-11-12T01:08:31.587Z,102912.25
2022-11-12T01:11:06.612Z,102911.19
2022-11-12T01:13:37.794Z,102915.28
2022-11-12T01:16:11.286Z,102919.03
2022-11-12T01:18:40.761Z,102919.28
2022-11-12T01:21:09.219Z,102920.59
2022-11-12T01:23:38.800Z,102920.59
2022-11-12T01:26:07.581Z,102921.91
2022-11-12T01:28:35.415Z,102925.91
2022-11-12T01:31:12.682Z,102921.25
2022-11-12T01:33:42.250Z,102928.53
2022-11-12T01:36:11.468Z,102919.81
2022-11-12T01:38:41.137Z,102921.13
2022-11-12T01:41:10.718Z,102914.09
2022-11-12T01:43:38.960Z,102914.56
2022-11-12T01:46:14.666Z,102922.09
2022-11-12T01:48:50.874Z,102919.91
2022-11-12T01:51:21.275Z,102928.81
2022-11-12T01:53:52.561Z,102911.19
2022-11-12T01:56:24.425Z,102912.25
2022-11-12T01:58:57.619Z,102906.28
2022-11-12T02:01:26.207Z,102899.25
2022-11-12T02:03:56.134Z,102903.22
2022-11-12T02:06:25.279Z,102910.75
2022-11-12T02:08:53.362Z,102906.66
2022-11-12T02:11:23.111Z,102897.50
2022-11-12T02:13:58.484Z,102899.13
2022-11-12T02:16:28.646Z,102899.13
2022-11-12T02:18:57.899Z,102899.13
2022-11-12T02:21:27.624Z,102894.78
2022-11-12T02:24:03.257Z,102897.97
2022-11-12T02:26:34.890Z,102893.06
2022-11-12T02:29:03.087Z,102889.78
2022-11-12T02:31:31.597Z,102895.41
2022-11-12T02:33:59.472Z,102894.00
2022-11-12T02:36:29.673Z,102889.91
2022-11-12T02:38:57.472Z,102899.91
2022-11-12T02:41:25.484Z,102902.25
2022-11-12T02:43:53.554Z,102897.09
2022-11-12T02:46:21.392Z,102901.09
2022-11-12T02:48:49.236Z,102901.31
2022-11-12T02:51:17.099Z,102905.06
2022-11-12T02:53:46.323Z,102901.81
2022-11-12T02:56:14.199Z,102907.44
2022-11-12T02:58:42.141Z,102902.28
2022-11-12T03:01:10.022Z,102904.38
2022-11-12T03:03:37.838Z,102892.19
2022-11-12T03:06:06.163Z,102901.59
2022-11-12T03:08:33.978Z,102887.03
2022-11-12T03:11:09.064Z,102887.03
2022-11-12T03:13:37.119Z,102904.38
2022-11-12T03:16:05.607Z,102895.72
2022-11-12T03:18:36.209Z,102907.34
2022-11-12T03:21:04.183Z,102903.25
2022-11-12T03:23:32.349Z,102894.53
2022-11-12T03:26:00.368Z,102889.63
2022-11-12T03:28:29.933Z,102887.97
2022-11-12T03:30:59.842Z,102889.28
2022-11-12T03:33:27.925Z,102892.69
2022-11-12T03:35:56.287Z,102893.16
2022-11-12T03:38:25.011Z,102890.94
2022-11-12T03:40:53.067Z,102887.66
2022-11-12T03:43:29.364Z,102885.41
2022-11-12T03:45:57.107Z,102888.13
2022-11-12T03:49:14.600Z,102886.38
2022-11-12T03:51:42.593Z,102889.66
2022-11-12T03:54:10.444Z,102883.66
2022-11-12T03:56:38.272Z,102883.66
2022-11-12T03:59:07.397Z,102875.25
2022-11-12T04:01:35.450Z,102879.00
2022-11-12T04:04:03.552Z,102878.75
2022-11-12T04:06:48.599Z,102889.31
2022-11-12T04:09:16.408Z,102873.94
2022-11-12T04:11:44.550Z,102872.28
2022-11-12T04:14:13.747Z,102866.91
2022-11-12T04:16:59.088Z,102869.03
2022-11-12T04:19:44.232Z,102870.09
2022-11-12T04:22:13.111Z,102862.44
2022-11-12T04:25:00.308Z,102860.81
2022-11-12T04:27:30.147Z,102866.69
2022-11-12T04:30:16.980Z,102865.50
2022-11-12T04:32:48.717Z,102856.84
2022-11-12T04:35:16.820Z,102853.56
2022-11-12T04:37:47.587Z,102848.16
2022-11-12T04:40:34.406Z,102854.59
2022-11-12T04:43:21.008Z,102848.63
2022-11-12T04:45:52.981Z,102846.97
2022-11-12T04:48:21.388Z,102849.09
2022-11-12T04:50:54.295Z,102847.47
2022-11-12T04:53:22.910Z,102849.34
2022-11-12T04:55:51.201Z,102844.41
2022-11-12T04:58:19.296Z,102846.28
2022-11-12T05:00:47.569Z,102840.66
2022-11-12T05:03:16.984Z,102846.66
2022-11-12T05:05:44.813Z,102843.72
2022-11-12T05:08:12.653Z,102837.25
2022-11-12T05:10:40.917Z,102834.56
2022-11-12T05:13:09.166Z,102838.78
2022-11-12T05:15:36.940Z,102832.22
2022-11-12T05:18:04.967Z,102835.38
2022-11-12T05:20:34.121Z,102829.41
2022-11-12T05:23:07.181Z,102831.53
2022-11-12T05:25:36.305Z,102833.59
2022-11-12T05:28:06.836Z,102831.97
2022-11-12T05:30:35.727Z,102827.06
2022-11-12T05:33:03.841Z,102831.63
2022-11-12T05:35:32.211Z,102822.97
2022-11-12T05:38:01.316Z,102820.47
2022-11-12T05:40:29.502Z,102817.22
2022-11-12T05:42:57.637Z,102813.94
2022-11-12T05:45:25.783Z,102811.47
2022-11-12T05:47:53.621Z,102810.63
2022-11-12T05:50:21.407Z,102816.50
2022-11-12T05:52:49.443Z,102809.47
2022-11-12T05:55:18.632Z,102808.19
2022-11-12T05:57:46.447Z,102800.69
2022-11-12T06:00:15.197Z,102801.50
2022-11-12T06:02:43.208Z,102801.28
2022-11-12T06:05:11.396Z,102803.16
2022-11-12T06:07:39.864Z,102808.53
2022-11-12T06:10:08.837Z,102816.03
2022-11-12T06:12:38.179Z,102819.78
2022-11-12T06:15:07.064Z,102816.75
2022-11-12T06:17:34.919Z,102825.06
2022-11-12T06:20:02.774Z,102830.69
2022-11-12T06:22:30.558Z,102831.97
2022-11-12T06:24:58.781Z,102837.38
2022-11-12T06:27:26.845Z,102837.84
2022-11-12T06:29:56.038Z,102846.97
2022-11-12T06:32:24.189Z,102849.06
2022-11-12T06:34:53.670Z,102844.97
2022-11-12T06:37:22.094Z,102843.53
2022-11-12T06:39:50.154Z,102849.78
2022-11-12T06:42:18.131Z,102852.94
2022-11-12T06:44:45.951Z,102857.50
2022-11-12T06:47:15.293Z,102860.44
2022-11-12T06:49:43.267Z,102855.88
2022-11-12T06:52:16.352Z,102855.63
2022-11-12T06:54:45.261Z,102860.78
2022-11-12T06:57:13.269Z,102859.13
2022-11-12T06:59:41.071Z,102858.09
2022-11-12T07:02:09.285Z,102851.28
2022-11-12T07:04:38.764Z,102855.88
2022-11-12T07:07:10.654Z,102856.91
2022-11-12T07:09:39.203Z,102866.06
2022-11-12T07:12:07.514Z,102870.84
2022-11-12T07:14:35.535Z,102867.56
2022-11-12T07:17:03.383Z,102871.31
2022-11-12T07:19:31.160Z,102868.84
2022-11-12T07:22:00.284Z,102879.84
2022-11-12T07:24:28.097Z,102880.91
2022-11-12T07:26:56.209Z,102880.06
2022-11-12T07:29:42.723Z,102875.06
2022-11-12T07:32:12.819Z,102877.56
2022-11-12T07:34:40.641Z,102873.00
2022-11-12T07:37:10.509Z,102878.28
2022-11-12T07:39:40.434Z,102881.22
2022-11-12T07:42:08.265Z,102882.13
2022-11-12T07:44:36.085Z,102880.97
2022-11-12T07:47:04.023Z,102883.06
2022-11-12T07:49:31.828Z,102877.66
2022-11-12T07:51:59.579Z,102886.38
2022-11-12T07:54:29.176Z,102876.16
2022-11-12T07:56:57.035Z,102875.09
2022-11-12T07:59:24.860Z,102876.75
2022-11-12T08:01:54.410Z,102874.03
2022-11-12T08:04:22.536Z,102879.44
2022-11-12T08:06:50.704Z,102873.00
2022-11-12T08:09:18.570Z,102873.00
2022-11-12T08:11:47.754Z,102871.34
2022-11-12T08:14:15.522Z,102875.09
2022-11-12T08:16:43.400Z,102871.34
2022-11-12T08:19:11.201Z,102865.72
2022-11-12T08:21:39.051Z,102868.78
2022-11-12T08:24:07.510Z,102870.44
2022-11-12T08:26:35.293Z,102877.47
2022-11-12T08:29:08.586Z,102876.19
2022-11-12T08:31:37.164Z,102874.88
2022-11-12T08:34:12.320Z,102866.31
2022-11-12T08:36:41.422Z,102868.56
2022-11-12T08:39:09.694Z,102862.69
2022-11-12T08:41:37.877Z,102870.91
2022-11-12T08:44:08.657Z,102875.38
2022-11-12T08:46:37.152Z,102879.03
2022-11-12T08:49:05.061Z,102881.34
2022-11-12T08:51:33.395Z,102880.41
2022-11-12T08:54:01.450Z,102887.09
2022-11-12T08:56:29.214Z,102884.59
2022-11-12T08:58:57.033Z,102888.13
2022-11-12T09:01:26.321Z,102895.03
2022-11-12T09:03:54.189Z,102893.13
2022-11-12T09:06:21.954Z,102898.25
2022-11-12T09:08:49.848Z,102897.38
2022-11-12T09:11:17.922Z,102894.41
2022-11-12T09:13:45.763Z,102889.28
2022-11-12T09:16:13.577Z,102884.97
2022-11-12T09:18:45.883Z,102889.75
2022-11-12T09:21:14.081Z,102879.59
2022-11-12T09:23:41.893Z,102881.38
2022-11-12T09:26:09.722Z,102881.06
2022-11-12T09:28:37.523Z,102888.38
2022-11-12T09:31:07.923Z,102884.13
2022-11-12T09:33:35.899Z,102880.72
2022-11-12T09:36:05.557Z,102881.19
2022-11-12T09:38:33.728Z,102883.00
2022-11-12T09:41:18.661Z,102877.22
2022-11-12T09:43:51.424Z,102874.69
2022-11-12T09:46:29.194Z,102877.59
2022-11-12T09:49:02.903Z,102877.69
2022-11-12T09:51:35.620Z,102882.69
2022-11-12T09:54:08.630Z,102863.28
2022-11-12T09:56:36.479Z,102872.41
2022-11-12T09:59:04.852Z,102874.44
2022-11-12T10:01:45.071Z,102883.75
2022-11-12T10:04:37.229Z,102877.88
2022-11-12T10:07:14.058Z,102874.78
2022-11-12T10:09:53.165Z,102874.06
2022-11-12T10:12:33.868Z,102878.19
2022-11-12T10:15:38.910Z,102868.50
2022-11-12T10:18:14.309Z,102863.66
2022-11-12T10:20:48.930Z,102862.13
2022-11-12T10:23:22.061Z,102861.38
2022-11-12T10:25:54.652Z,102862.78
2022-11-12T10:28:31.975Z,102856.25
2022-11-12T10:31:11.980Z,102854.09
2022-11-12T10:33:40.004Z,102849.22
2022-11-12T10:36:22.463Z,102844.91
2022-11-12T10:38:54.545Z,102844.41
2022-11-12T10:41:26.608Z,102845.47
2022-11-12T10:43:56.639Z,102836.78
2022-11-12T10:46:26.575Z,102835.19
2022-11-12T10:48:57.450Z,102831.69
2022-11-12T10:51:28.542Z,102831.41
2022-11-12T10:53:58.007Z,102822.13
2022-11-12T10:56:29.878Z,102818.88
2022-11-12T10:59:17.985Z,102819.16
2022-11-12T11:01:47.111Z,102808.50
2022-11-12T11:04:26.400Z,102813.38
2022-11-12T11:07:01.057Z,102806.84
2022-11-12T11:09:31.088Z,102810.38
2022-11-12T11:11:58.950Z,102809.00
2022-11-12T11:14:30.211Z,102798.09
2022-11-12T11:17:00.995Z,102801.34
2022-11-12T11:19:36.333Z,102815.47
2022-11-12T11:22:16.124Z,102796.94
2022-11-12T11:24:52.949Z,102804.00
2022-11-12T11:27:31.062Z,102803.13
2022-11-12T11:30:07.020Z,102800.66
2022-11-12T11:32:48.919Z,102791.09
2022-11-12T11:35:26.064Z,102791.00
2022-11-12T11:38:16.232Z,102787.47
2022-11-12T11:40:55.430Z,102778.44
2022-11-12T11:43:39.857Z,102778.13
2022-11-12T11:46:17.260Z,102769.91
2022-11-12T11:48:59.870Z,102764.44
2022-11-12T11:51:42.749Z,102764.97
2022-11-12T11:54:30.172Z,102767.06
2022-11-12T11:57:02.966Z,102773.59
2022-11-12T11:59:43.607Z,102771.09
2022-11-12T12:02:29.066Z,102765.34
2022-11-12T12:05:10.014Z,102765.84
2022-11-12T12:07:46.936Z,102772.56
2022-11-12T12:10:30.354Z,102753.94
2022-11-12T12:13:21.177Z,102760.69
2022-11-12T12:16:01.868Z,102759.53
2022-11-12T12:18:40.537Z,102761.66
2022-11-12T12:21:14.589Z,102752.81
2022-11-12T12:23:47.669Z,102753.88
2022-11-12T12:26:20.276Z,102745.84
2022-11-12T12:28:56.749Z,102756.44
2022-11-12T12:31:30.587Z,102753.09
2022-11-12T12:34:02.665Z,102750.00
2022-11-12T12:36:35.740Z,102745.91
2022-11-12T12:39:14.172Z,102745.91
2022-11-12T12:41:47.861Z,102740.13
2022-11-12T12:44:17.167Z,102740.88
2022-11-12T12:46:57.460Z,102739.47
2022-11-12T12:49:32.807Z,102729.13
2022-11-12T12:52:01.045Z,102733.25
2022-11-12T12:54:57.902Z,102732.75
2022-11-12T12:57:34.409Z,102733.78
2022-11-12T13:00:33.497Z,102730.03
2022-11-12T13:03:01.836Z,102718.19
2022-11-12T13:05:32.880Z,102726.56
2022-11-12T13:08:04.803Z,102717.25
2022-11-12T13:10:53.722Z,102710.75
2022-11-12T13:13:32.151Z,102723.31
2022-11-12T13:16:03.319Z,102724.94
2022-11-12T13:19:01.549Z,102731.22
2022-11-12T13:21:30.388Z,102729.22
2022-11-12T13:24:10.932Z,102732.69
2022-11-12T13:26:46.250Z,102728.03
2022-11-12T13:29:41.805Z,102726.41
2022-11-12T13:32:34.410Z,102724.66
2022-11-12T13:35:31.511Z,102728.44
2022-11-12T13:38:02.984Z,102725.09
2022-11-12T13:40:43.966Z,102723.47
2022-11-12T13:43:19.126Z,102728.38
2022-11-12T13:45:51.360Z,102724.53
2022-11-12T13:48:26.366Z,102728.38
2022-11-12T13:50:58.537Z,102720.06
2022-11-12T13:53:28.499Z,102713.22
2022-11-12T13:55:56.636Z,102732.56
2022-11-12T13:58:30.006Z,102719.41
2022-11-12T14:01:00.220Z,102717.69
2022-11-12T14:03:32.330Z,102724.72
2022-11-12T14:06:06.237Z,102715.09
2022-11-12T14:08:56.868Z,102717.56
2022-11-12T14:11:40.177Z,102713.91
2022-11-12T14:14:17.925Z,102705.41
2022-11-12T14:16:58.774Z,102705.41
2022-11-12T14:19:58.856Z,102699.50
2022-11-12T14:22:27.093Z,102704.69
2022-11-12T14:25:00.993Z,102698.91
2022-11-12T14:27:37.136Z,102699.00
2022-11-12T14:30:16.976Z,102700.72
2022-11-12T14:32:46.724Z,102690.28
2022-11-12T14:35:28.911Z,102688.13
2022-11-12T14:38:00.192Z,102692.78
2022-11-12T14:40:30.289Z,102685.69
2022-11-12T14:42:58.290Z,102688.50
2022-11-12T14:45:28.012Z,102680.41
2022-11-12T14:47:58.875Z,102678.56
2022-11-12T14:50:37.345Z,102679.16
2022-11-12T14:53:18.234Z,102665.56
2022-11-12T14:55:53.731Z,102671.63
2022-11-12T14:58:22.990Z,102673.00
2022-11-12T15:00:52.412Z,102664.59
2022-11-12T15:03:22.714Z,102666.28
2022-11-12T15:06:01.166Z,102677.59
2022-11-12T15:08:34.338Z,102672.44
2022-11-12T15:11:21.733Z,102676.94
2022-11-12T15:13:51.480Z,102678.06
2022-11-12T15:16:23.235Z,102674.28
2022-11-12T15:19:20.973Z,102671.16
2022-11-12T15:21:53.651Z,102669.53
2022-11-12T15:24:29.334Z,102676.13
2022-11-12T15:26:58.547Z,102669.63
2022-11-12T15:29:30.648Z,102665.34
2022-11-12T15:32:00.936Z,102660.22
2022-11-12T15:34:34.635Z,102666.84
2022-11-12T15:37:07.176Z,102656.28
2022-11-12T15:39:42.732Z,102648.75
2022-11-12T15:42:17.218Z,102648.28
2022-11-12T15:44:46.377Z,102646.41
2022-11-12T15:47:21.027Z,102647.84
2022-11-12T15:49:53.687Z,102657.19
2022-11-12T15:52:23.414Z,102642.00
2022-11-12T15:54:51.726Z,102639.88
2022-11-12T15:57:22.224Z,102646.50
2022-11-12T15:59:56.807Z,102638.38
2022-11-12T16:02:25.082Z,102645.78
2022-11-12T16:04:53.013Z,102642.84
2022-11-12T16:07:22.438Z,102642.56
2022-11-12T16:09:52.064Z,102644.81
2022-11-12T16:12:20.043Z,102643.75
2022-11-12T16:14:48.084Z,102635.94
2022-11-12T16:17:17.254Z,102645.22
2022-11-12T16:19:45.152Z,102640.91
2022-11-12T16:22:15.822Z,102639.00
2022-11-12T16:24:45.087Z,102639.59
2022-11-12T16:27:14.558Z,102638.53
2022-11-12T16:29:42.912Z,102639.09
2022-11-12T16:32:14.469Z,102640.47
2022-11-12T16:34:42.282Z,102633.97
2022-11-12T16:37:13.049Z,102636.16
2022-11-12T16:39:40.967Z,102637.81
2022-11-12T16:42:10.998Z,102637.31
2022-11-12T16:44:38.930Z,102644.09
2022-11-12T16:47:06.880Z,102632.97
2022-11-12T16:49:38.679Z,102631.63
2022-11-12T16:52:06.900Z,102634.09
2022-11-12T16:54:34.714Z,102639.03
2022-11-12T16:57:02.477Z,102636.84
2022-11-12T16:59:31.747Z,102640.66
2022-11-12T17:01:59.828Z,102638.53
2022-11-12T17:04:27.894Z,102632.00
2022-11-12T17:06:56.011Z,102632.00
2022-11-12T17:09:24.025Z,102626.06
2022-11-12T17:11:51.775Z,102623.38
2022-11-12T17:14:24.192Z,102624.50
2022-11-12T17:16:56.467Z,102627.25
2022-11-12T17:19:24.438Z,102621.28
2022-11-12T17:21:52.393Z,102623.50
2022-11-12T17:24:20.346Z,102627.31
2022-11-12T17:26:48.261Z,102622.16
2022-11-12T17:29:16.038Z,102617.59
2022-11-12T17:31:44.080Z,102622.75
2022-11-12T17:34:13.514Z,102618.16
2022-11-12T17:36:43.709Z,102616.25
2022-11-12T17:39:14.514Z,102613.22
2022-11-12T17:41:42.376Z,102610.53
2022-11-12T17:44:16.817Z,102613.78
2022-11-12T17:46:45.637Z,102611.91
2022-11-12T17:49:16.061Z,102614.38
2022-11-12T17:51:44.233Z,102609.78
2022-11-12T17:54:12.207Z,102607.88
2022-11-12T17:56:40.105Z,102605.16
2022-11-12T17:59:08.101Z,102601.38
2022-11-12T18:01:36.105Z,102601.34
2022-11-12T18:04:04.049Z,102601.91
2022-11-12T18:06:35.303Z,102600.81
2022-11-12T18:09:05.950Z,102604.06
2022-11-12T18:11:46.393Z,102594.03
2022-11-12T18:14:14.621Z,102603.53
2022-11-12T18:16:42.795Z,102601.38
2022-11-12T18:19:12.532Z,102607.38
2022-11-12T18:21:41.882Z,102604.09
2022-11-12T18:24:15.492Z,102603.00
2022-11-12T18:26:44.505Z,102603.53
2022-11-12T18:29:13.119Z,102597.84
2022-11-12T18:31:41.622Z,102603.56
2022-11-12T18:34:12.321Z,102603.00
2022-11-12T18:36:41.611Z,102600.84
2022-11-12T18:39:09.716Z,102599.72
2022-11-12T18:41:37.721Z,102600.00
2022-11-12T18:44:05.915Z,102594.31
2022-11-12T18:46:33.613Z,102595.66
2022-11-12T18:49:01.398Z,102589.69
2022-11-12T18:51:29.128Z,102592.13
2022-11-12T18:53:58.225Z,102596.72
2022-11-12T18:56:26.281Z,102595.91
2022-11-12T18:58:54.127Z,102596.72
2022-11-12T19:01:24.802Z,102601.63
2022-11-12T19:03:55.257Z,102591.56
2022-11-12T19:06:23.498Z,102592.13
2022-11-12T19:08:52.084Z,102592.66
2022-11-12T19:11:21.932Z,102593.19
2022-11-12T19:13:52.044Z,102597.53
2022-11-12T19:16:22.736Z,102591.53
2022-11-12T19:18:52.149Z,102596.97
2022-11-12T19:21:22.282Z,102593.16
2022-11-12T19:23:53.984Z,102589.38
2022-11-12T19:26:24.537Z,102589.88
2022-11-12T19:28:52.336Z,102592.06
2022-11-12T19:31:21.873Z,102577.94
2022-11-12T19:33:49.977Z,102590.13
2022-11-12T19:36:20.643Z,102581.16
2022-11-12T19:38:49.220Z,102581.72
2022-11-12T19:41:20.092Z,102581.72
2022-11-12T19:43:49.704Z,102581.72
2022-11-12T19:46:17.515Z,102584.97
2022-11-12T19:48:45.459Z,102582.25
2022-11-12T19:51:14.051Z,102580.09
2022-11-12T19:53:44.730Z,102581.16
2022-11-12T19:56:17.032Z,102580.09
2022-11-12T19:58:46.649Z,102580.63
2022-11-12T20:01:17.897Z,102578.44
2022-11-12T20:03:46.469Z,102578.44
2022-11-12T20:06:15.888Z,102579.50
2022-11-12T20:08:44.209Z,102571.88
2022-11-12T20:11:12.632Z,102563.22
2022-11-12T20:13:40.560Z,102567.00
2022-11-12T20:16:09.394Z,102563.72
2022-11-12T20:18:38.725Z,102567.53
2022-11-12T20:21:07.970Z,102559.66
2022-11-12T20:23:37.417Z,102561.56
2022-11-12T20:26:06.700Z,102562.91
2022-11-12T20:28:35.230Z,102560.72
2022-11-12T20:31:04.481Z,102554.75
2022-11-12T20:33:34.616Z,102557.47
2022-11-12T20:36:09.001Z,102546.34
2022-11-12T20:38:41.196Z,102539.28
2022-11-12T20:41:13.379Z,102538.19
2022-11-12T20:43:41.291Z,102545.78
2022-11-12T20:46:09.793Z,102539.84
2022-11-12T20:48:42.831Z,102545.78
2022-11-12T20:51:23.603Z,102546.31
2022-11-12T20:53:58.692Z,102547.63
2022-11-12T20:56:28.810Z,102551.72
2022-11-12T20:58:56.814Z,102552.25
2022-11-12T21:01:27.086Z,102556.03
2022-11-12T21:03:55.106Z,102548.97
2022-11-12T21:06:27.222Z,102547.88
2022-11-12T21:08:55.166Z,102531.88
2022-11-12T21:11:24.054Z,102535.94
2022-11-12T21:13:52.291Z,102531.03
2022-11-12T21:16:20.139Z,102532.13
2022-11-12T21:18:48.151Z,102534.84
2022-11-12T21:21:18.554Z,102541.66
2022-11-12T21:23:49.250Z,102535.94
2022-11-12T21:26:19.330Z,102539.22
2022-11-12T21:28:48.895Z,102532.97
2022-11-12T21:31:19.209Z,102539.22
2022-11-12T21:33:50.341Z,102537.03
2022-11-12T21:36:18.400Z,102532.94
2022-11-12T21:38:47.797Z,102542.16
2022-11-12T21:41:17.210Z,102529.97
2022-11-12T21:43:46.193Z,102539.19
2022-11-12T21:46:16.156Z,102536.47
2022-11-12T21:48:44.385Z,102534.00
2022-11-12T21:51:16.628Z,102538.06
2022-11-12T21:53:44.941Z,102522.88
2022-11-12T21:56:15.721Z,102524.22
2022-11-12T21:58:44.402Z,102521.22
2022-11-12T22:01:16.107Z,102517.97
2022-11-12T22:03:44.506Z,102510.34
2022-11-12T22:06:12.831Z,102512.00
2022-11-12T22:08:41.375Z,102519.06
2022-11-12T22:11:11.151Z,102508.22
2022-11-12T22:13:41.150Z,102517.16
2022-11-12T22:16:10.794Z,102506.59
2022-11-12T22:18:39.233Z,102493.28
2022-11-12T22:21:08.781Z,102498.41
2022-11-12T22:23:37.019Z,102501.09
2022-11-12T22:26:06.779Z,102495.09
2022-11-12T22:28:35.002Z,102492.66
2022-11-12T22:31:09.575Z,102503.19
2022-11-12T22:33:37.824Z,102496.97
2022-11-12T22:36:08.789Z,102497.22
2022-11-12T22:38:37.385Z,102496.69
2022-11-12T22:41:06.831Z,102490.44
2022-11-12T22:43:36.696Z,102488.00
2022-11-12T22:46:08.385Z,102492.31
2022-11-12T22:48:36.183Z,102490.94
2022-11-12T22:51:05.561Z,102486.59
2022-11-12T22:53:33.638Z,102483.88
2022-11-12T22:56:06.284Z,102485.28
2022-11-12T22:58:36.435Z,102478.75
2022-11-12T23:01:05.352Z,102483.09
2022-11-12T23:03:35.959Z,102485.81
2022-11-12T23:06:06.160Z,102487.72
2022-11-12T23:08:35.871Z,102484.72
2022-11-12T23:11:04.532Z,102489.56
2022-11-12T23:13:32.816Z,102487.41
2022-11-12T23:16:01.007Z,102478.72
2022-11-12T23:18:29.512Z,102483.56
2022-11-12T23:21:04.654Z,102477.06
2022-11-12T23:23:32.837Z,102474.84
2022-11-12T23:26:05.637Z,102473.75
2022-11-12T23:28:33.478Z,102469.44
2022-11-12T23:31:02.240Z,102469.94
2022-11-12T23:33:30.138Z,102473.72
2022-11-12T23:36:06.860Z,102469.88
2022-11-12T23:38:34.773Z,102471.53
2022-11-12T23:41:03.497Z,102469.06
2022-11-12T23:43:31.438Z,102470.69
2022-11-12T23:45:59.545Z,102468.56
2022-11-12T23:48:27.824Z,102466.69
2022-11-12T23:51:03.354Z,102459.63
2022-11-12T23:53:34.774Z,102463.97
2022-11-12T23:56:02.991Z,102461.75
2022-11-12T23:58:31.625Z,102454.72
